Time;durP1;ratioP1;P1;durP2;ratioP2;P2;SDS_P1;SDS_P2;PMS_P1;PMS_P2;Temp;Humidity;BMP_temperature;BMP_pressure;BME280_temperature;BME280_humidity;BME280_pressure;Samples;Min_cycle;Max_cycle;Signal;HPM_P1;HPM_P2
2023/10/17 00:01:44;;;;;;;;;;;;;;;21.62;43.36;101581.97;7393021;19;1499;-42
2023/10/17 00:04:24;;;;;;;;;;;;;;;21.61;43.49;101587.53;7390672;19;1529;-42
2023/10/17 00:06:58;;;;;;;;;;;;;;;21.62;43.35;101589.22;7390663;19;1855;-42
2023/10/17 00:09:29;;;;;;;;;;;;;;;21.58;43.37;101585.91;7392895;19;2478;-42
2023/10/17 00:12:25;;;;;;;;;;;;;;;21.55;43.25;101583.50;7391830;19;1475;-43
2023/10/17 00:14:58;;;;;;;;;;;;;;;21.56;43.73;101573.59;7376903;19;2154;-43
2023/10/17 00:17:27;;;;;;;;;;;;;;;21.56;43.17;101573.59;7392475;19;1496;-42
2023/10/17 00:19:55;;;;;;;;;;;;;;;21.58;43.30;101583.22;7392799;19;1443;-42
2023/10/17 00:22:27;;;;;;;;;;;;;;;21.59;43.18;101573.34;7391514;19;1599;-42
2023/10/17 00:25:03;;;;;;;;;;;;;;;21.54;43.35;101570.19;7391850;19;1876;-42
2023/10/17 00:27:31;;;;;;;;;;;;;;;21.53;43.28;101574.72;7392311;19;1391;-42
2023/10/17 00:30:00;;;;;;;;;;;;;;;21.52;43.26;101580.22;7390227;19;1325;-42
2023/10/17 00:32:31;;;;;;;;;;;;;;;21.55;43.40;101571.91;7391656;19;1506;-42
2023/10/17 00:35:02;;;;;;;;;;;;;;;21.54;43.21;101570.19;7389774;19;1543;-42
2023/10/17 00:37:37;;;;;;;;;;;;;;;21.56;43.14;101581.66;7391165;19;1512;-42
2023/10/17 00:40:26;;;;;;;;;;;;;;;21.54;43.17;101575.56;7391398;19;1441;-42
2023/10/17 00:42:54;;;;;;;;;;;;;;;21.54;43.00;101583.63;7390133;19;1481;-41
2023/10/17 00:45:23;;;;;;;;;;;;;;;21.56;42.89;101578.97;7391569;19;1845;-41
2023/10/17 00:47:51;;;;;;;;;;;;;;;21.53;43.09;101568.50;7390876;19;1438;-41
2023/10/17 00:50:20;;;;;;;;;;;;;;;21.49;43.07;101577.78;7392265;19;1452;-41
2023/10/17 00:52:51;;;;;;;;;;;;;;;21.49;43.09;101584.03;7389399;19;1372;-41
2023/10/17 00:55:20;;;;;;;;;;;;;;;21.51;43.03;101562.38;7391094;19;1415;-41
2023/10/17 00:57:51;;;;;;;;;;;;;;;21.48;42.96;101573.41;7391597;19;1733;-41
2023/10/17 01:00:23;;;;;;;;;;;;;;;21.47;43.04;101559.09;7391688;19;1576;-41
2023/10/17 01:02:51;;;;;;;;;;;;;;;21.48;43.04;101560.78;7390964;19;1538;-41
2023/10/17 01:05:21;;;;;;;;;;;;;;;21.47;42.82;101569.00;7392397;19;1857;-41
2023/10/17 01:07:51;;;;;;;;;;;;;;;21.48;42.74;101568.03;7391612;19;1815;-41
2023/10/17 01:10:26;;;;;;;;;;;;;;;21.48;42.82;101566.19;7391468;19;1459;-41
2023/10/17 01:13:00;;;;;;;;;;;;;;;21.48;42.61;101565.34;7390350;19;1799;-40
2023/10/17 01:15:29;;;;;;;;;;;;;;;21.45;42.51;101570.00;7377472;19;1791;-41
2023/10/17 01:18:03;;;;;;;;;;;;;;;21.49;42.75;101567.03;7389834;19;1582;-41
2023/10/17 01:20:32;;;;;;;;;;;;;;;21.47;42.67;101567.19;7389932;19;2504;-41
2023/10/17 01:23:04;;;;;;;;;;;;;;;21.43;42.83;101563.91;7390415;19;1476;-41
2023/10/17 01:25:40;;;;;;;;;;;;;;;21.46;42.54;101562.75;7392627;19;1864;-41
2023/10/17 01:28:10;;;;;;;;;;;;;;;21.43;42.56;101557.66;7389725;19;1439;-41
2023/10/17 01:30:41;;;;;;;;;;;;;;;21.44;42.77;101562.03;7390489;19;1522;-41
2023/10/17 01:33:10;;;;;;;;;;;;;;;21.42;42.72;101558.59;7390211;19;1436;-41
2023/10/17 01:35:40;;;;;;;;;;;;;;;21.40;42.47;101564.09;7389809;19;2058;-41
2023/10/17 01:38:12;;;;;;;;;;;;;;;21.39;42.72;101554.34;7389922;19;1479;-41
2023/10/17 01:40:43;;;;;;;;;;;;;;;21.35;42.82;101555.59;7389816;19;1479;-41
2023/10/17 01:43:11;;;;;;;;;;;;;;;21.35;42.71;101544.00;7389651;19;1462;-41
2023/10/17 01:45:42;;;;;;;;;;;;;;;21.38;42.71;101554.47;7392574;19;1857;-41
2023/10/17 01:48:12;;;;;;;;;;;;;;;21.36;42.80;101557.28;7397536;19;1526;-41
2023/10/17 01:50:44;;;;;;;;;;;;;;;21.33;42.62;101554.88;7396324;19;1404;-41
2023/10/17 01:53:13;;;;;;;;;;;;;;;21.32;42.58;101561.22;7398057;19;1858;-41
2023/10/17 01:55:49;;;;;;;;;;;;;;;21.37;42.45;101564.38;7396754;19;1821;-41
2023/10/17 01:58:18;;;;;;;;;;;;;;;21.37;42.84;101561.69;7398308;19;1377;-41
2023/10/17 02:00:47;;;;;;;;;;;;;;;21.34;42.50;101575.41;7398859;19;1816;-41
2023/10/17 02:03:16;;;;;;;;;;;;;;;21.35;42.44;101576.28;7397222;19;1448;-39
2023/10/17 02:05:45;;;;;;;;;;;;;;;21.34;42.49;101567.31;7394981;19;1862;-41
2023/10/17 02:08:14;;;;;;;;;;;;;;;21.38;42.52;101549.94;7396430;19;1509;-41
2023/10/17 02:10:47;;;;;;;;;;;;;;;21.39;42.19;101556.19;7399014;19;1344;-41
2023/10/17 02:13:17;;;;;;;;;;;;;;;21.35;42.49;101555.59;7396528;19;1903;-41
2023/10/17 02:15:45;;;;;;;;;;;;;;;21.38;42.32;101566.06;7383324;19;1843;-41
2023/10/17 02:18:17;;;;;;;;;;;;;;;21.36;42.30;101557.28;7395907;19;1542;-41
2023/10/17 02:20:51;;;;;;;;;;;;;;;21.36;42.28;101554.59;7397511;19;1527;-41
2023/10/17 02:23:25;;;;;;;;;;;;;;;21.33;42.17;101546.81;7397136;19;1486;-41
2023/10/17 02:26:00;;;;;;;;;;;;;;;21.32;42.51;101547.78;7397526;19;1842;-41
2023/10/17 02:28:28;;;;;;;;;;;;;;;21.31;42.35;101548.78;7397109;19;1542;-41
2023/10/17 02:30:58;;;;;;;;;;;;;;;21.26;42.39;101554.53;7397537;19;1841;-41
2023/10/17 02:33:28;;;;;;;;;;;;;;;21.31;42.29;101564.03;7395377;19;1622;-41
2023/10/17 02:36:07;;;;;;;;;;;;;;;21.34;42.09;101561.94;7395630;19;1499;-41
2023/10/17 02:38:36;;;;;;;;;;;;;;;21.26;42.26;101551.84;7396068;19;1467;-41
2023/10/17 02:41:08;;;;;;;;;;;;;;;21.24;42.01;101553.81;7394465;19;1505;-41
2023/10/17 02:43:40;;;;;;;;;;;;;;;21.30;42.13;101551.59;7394960;19;1502;-42
2023/10/17 02:46:08;;;;;;;;;;;;;;;21.27;42.13;101563.47;7394670;19;1849;-42
2023/10/17 02:48:45;;;;;;;;;;;;;;;21.31;42.29;101555.97;7395967;19;1545;-41
2023/10/17 02:51:31;;;;;;;;;;;;;;;21.25;42.06;101547.47;7393166;19;1511;-41
2023/10/17 02:54:01;;;;;;;;;;;;;;;21.24;41.93;101555.66;7392786;19;1489;-41
2023/10/17 02:56:36;;;;;;;;;;;;;;;21.22;42.04;101565.69;7393442;19;1420;-41
2023/10/17 02:59:07;;;;;;;;;;;;;;;21.30;41.71;101557.81;7393668;19;1420;-42
2023/10/17 03:01:36;;;;;;;;;;;;;;;21.28;41.73;101554.41;7396252;19;1465;-49
2023/10/17 03:04:08;;;;;;;;;;;;;;;21.27;41.78;101560.78;7394911;19;1364;-41
2023/10/17 03:06:37;;;;;;;;;;;;;;;21.20;41.90;101564.97;7394292;19;1847;-42
2023/10/17 03:09:15;;;;;;;;;;;;;;;21.24;41.96;101552.97;7397130;19;1112;-42
2023/10/17 03:12:06;;;;;;;;;;;;;;;21.23;41.73;101560.19;7395858;19;1663;-41
2023/10/17 03:14:39;;;;;;;;;;;;;;;21.21;41.70;101553.25;7396201;19;1583;-43
2023/10/17 03:17:06;;;;;;;;;;;;;;;21.23;41.63;101548.59;7380474;19;1815;-41
2023/10/17 03:19:34;;;;;;;;;;;;;;;21.17;41.84;101547.28;7396040;19;1440;-41
2023/10/17 03:22:16;;;;;;;;;;;;;;;21.20;41.84;101551.53;7393938;19;1755;-41
2023/10/17 03:24:42;;;;;;;;;;;;;;;21.22;41.56;101557.63;7392318;19;1538;-41
2023/10/17 03:27:23;;;;;;;;;;;;;;;21.26;41.60;101556.38;7393376;19;1849;-41
2023/10/17 03:29:52;;;;;;;;;;;;;;;21.21;41.53;101546.03;7394762;19;1464;-41
2023/10/17 03:32:22;;;;;;;;;;;;;;;21.23;41.50;101541.38;7395505;19;1348;-42
2023/10/17 03:34:56;;;;;;;;;;;;;;;21.17;41.68;101546.38;7393575;19;1491;-41
2023/10/17 03:37:33;;;;;;;;;;;;;;;21.15;41.86;101532.22;7394162;19;1492;-47
2023/10/17 03:40:14;;;;;;;;;;;;;;;21.15;41.50;101540.28;7394339;19;1486;-42
2023/10/17 03:42:53;;;;;;;;;;;;;;;21.17;41.66;101541.00;7392436;19;1492;-42
2023/10/17 03:45:23;;;;;;;;;;;;;;;21.15;41.64;101541.16;7391575;19;1517;-42
2023/10/17 03:47:57;;;;;;;;;;;;;;;21.12;41.72;101556.72;7390436;19;1863;-42
2023/10/17 03:50:41;;;;;;;;;;;;;;;21.17;41.72;101546.38;7395406;19;1489;-42
2023/10/17 03:53:14;;;;;;;;;;;;;;;21.01;42.06;101545.03;7394323;19;1771;-42
2023/10/17 03:55:44;;;;;;;;;;;;;;;21.04;41.92;101552.81;7390162;19;1798;-41
2023/10/17 03:58:29;;;;;;;;;;;;;;;21.05;41.90;101545.63;7303261;19;14434;-42
2023/10/17 04:00:59;;;;;;;;;;;;;;;21.08;41.80;101539.13;7392837;19;1558;-42
2023/10/17 04:03:30;;;;;;;;;;;;;;;20.98;42.31;101552.50;7379036;19;1383;-43
2023/10/17 04:06:13;;;;;;;;;;;;;;;20.92;43.00;101547.63;7388311;19;1802;-43
2023/10/17 04:08:48;;;;;;;;;;;;;;;20.88;43.15;101540.81;7392428;19;1562;-42
2023/10/17 04:11:17;;;;;;;;;;;;;;;20.82;42.25;101542.19;7394206;19;1640;-43
2023/10/17 04:13:50;;;;;;;;;;;;;;;20.99;41.94;101544.31;7395632;19;1030;-43
2023/10/17 04:16:22;;;;;;;;;;;;;;;21.03;41.84;101551.13;7379871;19;1815;-42
2023/10/17 04:18:54;;;;;;;;;;;;;;;21.04;41.72;101542.06;7394701;19;1918;-43
2023/10/17 04:21:26;;;;;;;;;;;;;;;21.05;41.78;101519.59;7394668;19;1907;-43
2023/10/17 04:23:55;;;;;;;;;;;;;;;21.13;41.73;101556.59;7393030;19;1869;-43
2023/10/17 04:26:27;;;;;;;;;;;;;;;21.08;41.61;101536.44;7393209;19;1873;-43
2023/10/17 04:29:01;;;;;;;;;;;;;;;21.14;41.59;101552.06;7392146;19;1484;-43
2023/10/17 04:31:36;;;;;;;;;;;;;;;21.12;41.57;101546.78;6760239;19;10000936;-41
2023/10/17 04:34:09;;;;;;;;;;;;;;;21.08;41.61;101537.28;7374936;19;1558;-42
2023/10/17 04:36:39;;;;;;;;;;;;;;;21.11;41.47;101546.91;7382482;19;1900;-41
2023/10/17 04:39:18;;;;;;;;;;;;;;;21.06;41.71;101548.16;7380320;19;1731;-41
2023/10/17 04:42:04;;;;;;;;;;;;;;;21.08;41.97;101552.56;7377746;19;1531;-41
2023/10/17 04:44:39;;;;;;;;;;;;;;;21.05;41.54;101549.16;7379852;19;1479;-42
2023/10/17 04:49:50;;;;;;;;;;;;;;;21.12;41.53;101554.00;7382635;19;1792;-41
2023/10/17 04:52:19;;;;;;;;;;;;;;;21.12;41.49;101556.72;7382170;19;1497;-41
2023/10/17 04:54:48;;;;;;;;;;;;;;;21.13;41.58;101558.41;7381875;19;1505;-41
2023/10/17 04:57:16;;;;;;;;;;;;;;;21.09;41.48;101556.94;7380742;19;1539;-41
2023/10/17 04:59:59;;;;;;;;;;;;;;;21.11;41.46;101552.28;7382431;19;1727;-41
2023/10/17 05:02:36;;;;;;;;;;;;;;;21.09;41.59;101560.53;7381487;19;1467;-41
2023/10/17 06:17:50;;;;;;;;;;;;;;;21.75;40.12;101587.16;7381157;19;1703;-41
2023/10/17 06:20:44;;;;;;;;;;;;;;;21.75;40.20;101589.84;7395780;19;1788;-41
2023/10/17 06:26:07;;;;;;;;;;;;;;;21.69;40.32;101585.00;7396242;19;1546;-41
2023/10/17 06:28:34;;;;;;;;;;;;;;;21.69;40.59;101593.09;7393369;19;1835;-41
2023/10/17 06:33:56;;;;;;;;;;;;;;;21.67;40.43;101597.75;7392320;19;2011;-41
2023/10/17 06:36:25;;;;;;;;;;;;;;;21.65;40.63;101588.94;7395851;19;1487;-41
2023/10/17 06:38:54;;;;;;;;;;;;;;;21.62;40.71;101586.50;7396302;19;1760;-42
2023/10/17 06:41:27;;;;;;;;;;;;;;;21.65;40.76;101597.88;7395379;19;1835;-41
2023/10/17 06:43:58;;;;;;;;;;;;;;;21.61;40.66;101582.13;7392132;19;1934;-41
2023/10/17 06:46:29;;;;;;;;;;;;;;;21.60;40.94;101594.72;7392886;19;1534;-41
2023/10/17 06:48:58;;;;;;;;;;;;;;;21.62;40.94;101590.06;7395159;19;1511;-41
2023/10/17 06:51:36;;;;;;;;;;;;;;;21.64;41.13;101587.22;7394605;19;1414;-41
2023/10/17 06:54:12;;;;;;;;;;;;;;;21.73;40.87;101588.28;7392414;19;1519;-41
2023/10/17 06:56:44;;;;;;;;;;;;;;;21.74;40.82;101574.69;7394128;19;1550;-41
2023/10/17 06:59:33;;;;;;;;;;;;;;;21.73;40.60;101575.69;7396385;19;1428;-41
2023/10/17 07:02:16;;;;;;;;;;;;;;;21.78;40.71;101584.19;7392852;19;1370;-41
2023/10/17 07:04:49;;;;;;;;;;;;;;;21.85;40.71;101585.38;7394720;19;1495;-41
2023/10/17 07:07:22;;;;;;;;;;;;;;;21.88;40.60;101578.00;7393830;19;1862;-41
2023/10/17 07:09:52;;;;;;;;;;;;;;;21.81;40.64;101577.69;7395247;19;1412;-41
2023/10/17 07:12:21;;;;;;;;;;;;;;;21.86;41.01;101575.44;7393322;19;1551;-41
2023/10/17 07:14:53;;;;;;;;;;;;;;;21.84;41.38;101566.66;7393318;19;1486;-41
2023/10/17 07:17:39;;;;;;;;;;;;;;;21.80;41.44;101568.75;7376850;19;1504;-41
2023/10/17 07:20:12;;;;;;;;;;;;;;;21.88;41.27;101578.84;7394085;19;1482;-41
2023/10/17 07:22:53;;;;;;;;;;;;;;;21.68;42.45;101567.13;7393485;19;1581;-41
2023/10/17 07:25:22;;;;;;;;;;;;;;;21.69;41.71;101568.84;7395114;19;1637;-41
2023/10/17 07:27:52;;;;;;;;;;;;;;;21.60;42.68;101550.81;7392894;19;1859;-41
2023/10/17 07:30:35;;;;;;;;;;;;;;;21.59;41.83;101551.81;7394193;19;1562;-41
2023/10/17 07:33:05;;;;;;;;;;;;;;;21.75;41.81;101546.78;7389919;19;1579;-41
2023/10/17 07:35:36;;;;;;;;;;;;;;;21.85;41.90;101552.22;7393507;19;1455;-41
2023/10/17 07:38:07;;;;;;;;;;;;;;;21.95;41.88;101542.31;7393480;19;1531;-41
2023/10/17 07:40:42;;;;;;;;;;;;;;;22.08;42.15;101546.63;7392019;19;1920;-41
2023/10/17 07:43:10;;;;;;;;;;;;;;;22.11;42.00;101541.81;7391806;19;1921;-41
2023/10/17 07:45:41;;;;;;;;;;;;;;;22.14;41.99;101552.28;7389717;19;1727;-41
2023/10/17 07:50:54;;;;;;;;;;;;;;;22.23;43.07;101534.47;7388119;19;1509;-41
2023/10/17 07:53:26;;;;;;;;;;;;;;;22.26;42.80;101528.81;7389685;19;1775;-41
2023/10/17 07:56:05;;;;;;;;;;;;;;;22.06;43.31;101527.88;7389883;19;1541;-41
2023/10/17 07:58:39;;;;;;;;;;;;;;;22.20;43.70;101522.13;7390627;19;1535;-41
2023/10/17 08:01:14;;;;;;;;;;;;;;;22.20;43.63;101527.53;7390113;19;1708;-41
2023/10/17 08:03:49;;;;;;;;;;;;;;;22.24;43.03;101520.03;7390398;19;1313;-41
2023/10/17 08:06:22;;;;;;;;;;;;;;;22.13;41.78;101509.34;7393390;19;1471;-41
2023/10/17 08:08:53;;;;;;;;;;;;;;;22.17;41.52;101519.72;7392829;19;1877;-41
2023/10/17 08:11:31;;;;;;;;;;;;;;;22.24;41.76;101520.91;7394899;19;1475;-41
2023/10/17 08:14:01;;;;;;;;;;;;;;;22.13;41.86;101502.13;7393707;19;1536;-41
2023/10/17 08:16:32;;;;;;;;;;;;;;;22.13;41.92;101510.19;7394048;19;1344;-41
2023/10/17 08:19:12;;;;;;;;;;;;;;;22.26;42.65;101509.13;7378962;19;1493;-41
2023/10/17 08:21:49;;;;;;;;;;;;;;;22.12;42.98;101499.56;7393068;19;1572;-39
2023/10/17 08:24:26;;;;;;;;;;;;;;;22.13;41.99;101491.34;7392850;19;1518;-41
2023/10/17 08:27:13;;;;;;;;;;;;;;;22.24;42.65;101499.34;7393807;19;1738;-41
2023/10/17 08:29:38;;;;;;;;;;;;;;;22.19;42.84;101496.19;7393024;19;1640;-41
2023/10/17 08:32:15;;;;;;;;;;;;;;;22.20;42.90;101502.41;7394498;19;1842;-41
2023/10/17 08:34:42;;;;;;;;;;;;;;;22.40;42.27;101495.22;7394933;19;1534;-41
2023/10/17 08:37:11;;;;;;;;;;;;;;;22.40;42.34;101497.94;7393971;19;1837;-41
2023/10/17 08:39:51;;;;;;;;;;;;;;;22.36;41.34;101491.13;7394333;19;1554;-43
2023/10/17 08:42:30;;;;;;;;;;;;;;;22.34;41.28;101501.19;7395913;19;1756;-42
2023/10/17 08:44:59;;;;;;;;;;;;;;;22.22;41.73;101509.38;7394660;19;1660;-41
2023/10/17 08:47:30;;;;;;;;;;;;;;;22.10;39.88;101501.53;7393869;19;1859;-41
2023/10/17 08:50:01;;;;;;;;;;;;;;;22.11;39.10;101493.31;7394350;19;1890;-41
2023/10/17 08:52:35;;;;;;;;;;;;;;;22.06;38.54;101492.88;7393184;19;1870;-41
2023/10/17 08:55:06;;;;;;;;;;;;;;;22.05;38.32;101493.88;7390769;19;1788;-41
2023/10/17 08:57:37;;;;;;;;;;;;;;;22.08;38.52;101482.81;7392765;19;1870;-41
2023/10/17 09:00:23;;;;;;;;;;;;;;;22.11;37.22;101482.56;7393258;19;1731;-40
2023/10/17 09:03:02;;;;;;;;;;;;;;;22.03;38.70;101494.00;7391693;19;1824;-40
2023/10/17 09:05:32;;;;;;;;;;;;;;;22.09;36.95;101489.91;7391918;19;1938;-41
2023/10/17 09:08:03;;;;;;;;;;;;;;;22.13;36.90;101485.13;7392205;19;1838;-41
2023/10/17 09:10:39;;;;;;;;;;;;;;;22.21;36.43;101474.50;7393186;19;1712;-41
2023/10/17 09:15:55;;;;;;;;;;;;;;;22.19;37.19;101487.25;7393229;19;1800;-41
2023/10/17 09:18:27;;;;;;;;;;;;;;;22.19;36.84;101493.47;7377873;19;1499;-41
2023/10/17 09:20:56;;;;;;;;;;;;;;;22.28;36.63;101482.88;7391421;19;1815;-41
2023/10/17 09:23:26;;;;;;;;;;;;;;;22.19;36.75;101477.31;7392223;19;1800;-42
2023/10/17 09:25:58;;;;;;;;;;;;;;;22.12;36.84;101473.47;7391931;19;1739;-41
2023/10/17 09:28:28;;;;;;;;;;;;;;;22.16;36.69;101468.66;7390862;19;1857;-41
2023/10/17 09:31:03;;;;;;;;;;;;;;;22.15;36.71;101461.59;7391918;19;1438;-41
2023/10/17 09:33:32;;;;;;;;;;;;;;;22.12;36.71;101476.16;7390683;19;1458;-41
2023/10/17 09:36:03;;;;;;;;;;;;;;;22.11;36.69;101455.63;7391690;19;1779;-41
2023/10/17 09:38:33;;;;;;;;;;;;;;;22.08;36.79;101439.72;7390679;19;1566;-41
2023/10/17 09:41:05;;;;;;;;;;;;;;;22.08;37.13;101442.41;7391939;19;1541;-41
2023/10/17 09:43:33;;;;;;;;;;;;;;;21.88;37.29;101438.00;7390943;19;1821;-41
2023/10/17 09:46:04;;;;;;;;;;;;;;;22.05;36.68;101440.84;7393036;19;1760;-41
2023/10/17 09:48:35;;;;;;;;;;;;;;;21.95;36.90;101423.00;7389364;19;1846;-41
2023/10/17 09:51:04;;;;;;;;;;;;;;;22.14;36.74;101423.00;7391546;19;1799;-41
2023/10/17 09:53:34;;;;;;;;;;;;;;;22.23;36.42;101416.78;7391972;19;1479;-41
2023/10/17 09:56:07;;;;;;;;;;;;;;;22.13;36.80;101426.69;7391212;19;1799;-41
2023/10/17 09:58:37;;;;;;;;;;;;;;;22.14;36.22;101425.69;7391579;19;1593;-41
2023/10/17 10:01:08;;;;;;;;;;;;;;;22.21;35.78;101417.91;7390796;19;1788;-41
2023/10/17 10:03:40;;;;;;;;;;;;;;;22.14;36.42;101420.31;7390951;19;1715;-41
2023/10/17 10:06:25;;;;;;;;;;;;;;;22.23;35.96;101426.72;7389026;19;1717;-41
2023/10/17 10:08:57;;;;;;;;;;;;;;;22.18;36.62;101413.66;7396337;19;1842;-41
2023/10/17 10:11:43;;;;;;;;;;;;;;;22.12;36.76;101422.28;7396472;19;1478;-41
2023/10/17 10:14:15;;;;;;;;;;;;;;;22.15;36.56;101416.63;7398190;19;1720;-47
2023/10/17 10:16:49;;;;;;;;;;;;;;;22.05;36.13;101397.75;7397590;19;1506;-41
2023/10/17 10:19:17;;;;;;;;;;;;;;;21.89;37.21;101402.84;7380843;19;1475;-41
2023/10/17 10:21:58;;;;;;;;;;;;;;;22.15;36.15;101392.38;7398891;19;1497;-41
2023/10/17 10:24:26;;;;;;;;;;;;;;;22.05;36.94;101383.47;7397613;19;1542;-41
2023/10/17 10:27:09;;;;;;;;;;;;;;;21.95;37.00;101375.38;7396876;19;1928;-41
2023/10/17 10:29:40;;;;;;;;;;;;;;;22.06;36.31;101382.44;7396511;19;1835;-41
2023/10/17 10:32:08;;;;;;;;;;;;;;;22.11;35.79;101388.28;7398833;19;1818;-41
2023/10/17 10:34:37;;;;;;;;;;;;;;;22.17;36.12;101371.53;7397525;19;1491;-41
2023/10/17 10:37:08;;;;;;;;;;;;;;;22.14;36.00;101369.13;7396501;19;1744;-41
2023/10/17 10:39:37;;;;;;;;;;;;;;;22.18;35.56;101361.63;7396794;19;1529;-41
2023/10/17 10:42:07;;;;;;;;;;;;;;;22.00;36.51;101348.88;7398325;19;1815;-40
2023/10/17 10:44:44;;;;;;;;;;;;;;;22.17;35.67;101368.00;7395973;19;1640;-40
2023/10/17 10:47:13;;;;;;;;;;;;;;;22.27;36.15;101362.66;7396739;19;1748;-40
2023/10/17 10:49:41;;;;;;;;;;;;;;;22.14;35.70;101358.34;7395357;19;1863;-40
2023/10/17 10:52:10;;;;;;;;;;;;;;;22.17;35.41;101354.53;7397194;19;1803;-40
2023/10/17 10:54:54;;;;;;;;;;;;;;;21.96;36.13;101354.66;7398277;19;1703;-40
2023/10/17 10:57:28;;;;;;;;;;;;;;;22.14;36.13;101355.66;7396903;19;1780;-40
2023/10/17 11:00:00;;;;;;;;;;;;;;;22.10;36.09;101353.41;7397068;19;1782;-40
2023/10/17 11:02:30;;;;;;;;;;;;;;;22.24;35.90;101361.94;7396920;19;1752;-40
2023/10/17 11:04:59;;;;;;;;;;;;;;;22.17;35.87;101352.69;7396196;19;1388;-40
2023/10/17 11:07:27;;;;;;;;;;;;;;;22.20;35.71;101341.66;7394370;19;1478;-40
2023/10/17 11:10:06;;;;;;;;;;;;;;;22.29;35.44;101344.50;7393942;19;1846;-40
2023/10/17 11:12:35;;;;;;;;;;;;;;;22.20;36.07;101336.25;7396607;19;1616;-40
2023/10/17 11:15:19;;;;;;;;;;;;;;;22.22;35.83;101336.97;7395923;19;1550;-40
2023/10/17 11:17:47;;;;;;;;;;;;;;;22.26;35.14;101337.53;7378836;19;1499;-40
2023/10/17 11:20:18;;;;;;;;;;;;;;;22.17;34.81;101323.06;7394856;19;1566;-40
2023/10/17 11:22:46;;;;;;;;;;;;;;;22.19;35.49;101320.22;7395886;19;1514;-40
2023/10/17 11:25:21;;;;;;;;;;;;;;;22.13;35.39;101313.56;7396047;19;1595;-40
2023/10/17 11:27:53;;;;;;;;;;;;;;;22.18;34.96;101308.59;7396043;19;1518;-40
2023/10/17 11:30:32;;;;;;;;;;;;;;;22.16;34.90;101291.75;7392536;19;1858;-40
2023/10/17 11:33:05;;;;;;;;;;;;;;;22.18;35.18;101299.66;7396079;19;1376;-40
2023/10/17 11:35:34;;;;;;;;;;;;;;;22.18;35.33;101300.53;7395566;19;1735;-40
2023/10/17 11:38:03;;;;;;;;;;;;;;;22.15;35.32;101290.03;7395866;19;1732;-40
2023/10/17 11:40:32;;;;;;;;;;;;;;;22.12;35.14;101284.06;7395478;19;1749;-40
2023/10/17 11:43:01;;;;;;;;;;;;;;;22.12;34.93;101265.22;7394453;19;1823;-40
2023/10/17 11:45:37;;;;;;;;;;;;;;;22.22;34.74;101295.69;7395076;19;1746;-40
2023/10/17 11:48:26;;;;;;;;;;;;;;;22.23;34.96;101281.22;7395685;19;1578;-40
2023/10/17 11:51:05;;;;;;;;;;;;;;;22.19;34.97;101279.81;7395270;19;1491;-40
2023/10/17 11:53:33;;;;;;;;;;;;;;;22.14;35.09;101272.16;7392595;19;1768;-40
2023/10/17 11:56:02;;;;;;;;;;;;;;;22.19;35.01;101275.28;7393378;19;1407;-40
2023/10/17 11:58:33;;;;;;;;;;;;;;;22.21;35.03;101258.97;7396161;19;1151;-40
2023/10/17 12:01:04;;;;;;;;;;;;;;;22.13;35.25;101270.47;7394605;19;1459;-40
2023/10/17 12:03:32;;;;;;;;;;;;;;;22.11;35.16;101271.63;7394537;19;1471;-40
2023/10/17 12:06:00;;;;;;;;;;;;;;;22.11;35.16;101255.44;7394139;19;1534;-40
2023/10/17 12:08:32;;;;;;;;;;;;;;;22.07;35.15;101265.66;7394502;19;1843;-40
2023/10/17 12:11:00;;;;;;;;;;;;;;;22.09;34.86;101247.50;7394444;19;1359;-40
2023/10/17 12:13:29;;;;;;;;;;;;;;;22.08;34.91;101250.34;7395069;19;1629;-40
2023/10/17 12:16:02;;;;;;;;;;;;;;;22.03;35.43;101257.00;7392873;19;1905;-40
2023/10/17 12:18:33;;;;;;;;;;;;;;;21.84;36.25;101252.50;7377440;19;1721;-39
2023/10/17 12:21:04;;;;;;;;;;;;;;;21.71;37.68;101227.72;7390898;19;1364;-40
2023/10/17 12:23:32;;;;;;;;;;;;;;;21.74;38.44;101240.88;7394493;19;1658;-40
2023/10/17 12:26:01;;;;;;;;;;;;;;;21.67;38.46;101242.44;7391339;19;1438;-40
2023/10/17 12:28:30;;;;;;;;;;;;;;;21.71;37.83;101235.78;7386850;19;1971;-40
2023/10/17 12:30:59;;;;;;;;;;;;;;;22.01;37.42;101223.97;7387161;19;1581;-40
2023/10/17 12:33:27;;;;;;;;;;;;;;;22.07;36.65;101227.94;7391978;19;1802;-40
2023/10/17 12:35:59;;;;;;;;;;;;;;;22.13;36.62;101221.97;7389085;19;1559;-40
2023/10/17 12:38:33;;;;;;;;;;;;;;;22.13;36.43;101227.38;7392283;19;1577;-40
2023/10/17 12:41:03;;;;;;;;;;;;;;;22.14;36.35;101226.34;7391098;19;2487;-40
2023/10/17 12:43:31;;;;;;;;;;;;;;;22.14;36.40;101222.81;7393244;19;1192;-40
2023/10/17 12:46:00;;;;;;;;;;;;;;;22.19;36.55;101216.00;7391850;19;1587;-40
2023/10/17 12:48:28;;;;;;;;;;;;;;;22.20;36.07;101217.72;7391285;19;1867;-40
2023/10/17 12:50:59;;;;;;;;;;;;;;;22.21;36.27;101219.41;7391783;19;1732;-40
2023/10/17 12:53:27;;;;;;;;;;;;;;;22.17;36.14;101211.78;7390711;19;1530;-40
2023/10/17 12:55:56;;;;;;;;;;;;;;;22.20;36.18;101201.56;7391477;19;1485;-40
2023/10/17 12:58:25;;;;;;;;;;;;;;;22.22;36.27;101209.47;7390437;19;1843;-40
2023/10/17 13:00:53;;;;;;;;;;;;;;;22.23;36.37;101203.09;7390773;19;1506;-41
2023/10/17 13:03:22;;;;;;;;;;;;;;;22.24;36.43;101211.09;7391603;19;1526;-40
2023/10/17 13:05:50;;;;;;;;;;;;;;;22.16;36.73;101197.47;7391732;19;1551;-41
2023/10/17 13:08:21;;;;;;;;;;;;;;;22.19;36.74;101199.84;7391081;19;1450;-40
2023/10/17 13:10:50;;;;;;;;;;;;;;;22.22;36.87;101190.63;7389484;19;1853;-40
2023/10/17 13:13:18;;;;;;;;;;;;;;;22.16;36.92;101208.25;7391336;19;1862;-41
2023/10/17 13:15:47;;;;;;;;;;;;;;;22.21;37.18;101203.25;7392138;19;1819;-40
2023/10/17 13:18:16;;;;;;;;;;;;;;;22.18;37.00;101195.47;7374561;19;1839;-40
2023/10/17 13:20:48;;;;;;;;;;;;;;;22.15;37.09;101182.28;7390052;19;1534;-40
2023/10/17 13:23:16;;;;;;;;;;;;;;;22.18;37.15;101187.38;7391334;19;1759;-40
2023/10/17 13:25:48;;;;;;;;;;;;;;;22.19;36.99;101182.84;7390449;19;1756;-41
2023/10/17 13:28:16;;;;;;;;;;;;;;;22.13;37.23;101189.66;7390178;19;1909;-40
2023/10/17 13:30:44;;;;;;;;;;;;;;;22.17;37.35;101182.13;7389190;19;1858;-40
2023/10/17 13:33:12;;;;;;;;;;;;;;;22.18;37.47;101181.13;7391469;19;1535;-40
2023/10/17 13:35:41;;;;;;;;;;;;;;;22.18;37.64;101181.13;7390376;19;1727;-41
2023/10/17 13:38:09;;;;;;;;;;;;;;;22.17;37.54;101190.22;7390376;19;1732;-40
2023/10/17 13:40:38;;;;;;;;;;;;;;;22.16;37.71;101178.59;7390412;19;1559;-41
2023/10/17 13:43:10;;;;;;;;;;;;;;;22.17;37.57;101191.06;7398093;19;1753;-41
2023/10/17 13:45:41;;;;;;;;;;;;;;;22.19;37.80;101183.69;7397029;19;1471;-41
2023/10/17 13:48:09;;;;;;;;;;;;;;;22.16;37.81;101173.22;7396354;19;1475;-41
2023/10/17 13:50:38;;;;;;;;;;;;;;;22.13;37.96;101173.50;7394746;19;1863;-41
2023/10/17 13:53:16;;;;;;;;;;;;;;;22.17;38.02;101179.44;7398087;19;1253;-41
2023/10/17 13:55:45;;;;;;;;;;;;;;;22.15;37.92;101163.41;7399841;19;1683;-41
2023/10/17 13:58:16;;;;;;;;;;;;;;;22.17;38.26;101168.66;7398066;19;1803;-42
2023/10/17 14:00:51;;;;;;;;;;;;;;;22.14;38.29;101175.19;7397781;19;1715;-41
2023/10/17 14:03:21;;;;;;;;;;;;;;;22.14;38.27;101169.78;7397687;19;1604;-41
2023/10/17 14:05:51;;;;;;;;;;;;;;;22.17;38.28;101160.59;7397599;19;1796;-41
2023/10/17 14:08:22;;;;;;;;;;;;;;;22.13;38.43;101178.88;7396163;19;1430;-41
2023/10/17 14:10:50;;;;;;;;;;;;;;;22.09;38.41;101169.41;7395257;19;1865;-41
2023/10/17 14:13:21;;;;;;;;;;;;;;;21.95;39.49;101175.25;7396125;19;1545;-41
2023/10/17 14:15:51;;;;;;;;;;;;;;;21.92;39.80;101171.00;7397796;19;1784;-41
2023/10/17 14:18:29;;;;;;;;;;;;;;;22.04;39.60;101179.75;7387045;19;1701;-41
2023/10/17 14:23:57;;;;;;;;;;;;;;;22.04;39.46;101175.22;7394528;19;1795;-41
2023/10/17 14:26:27;;;;;;;;;;;;;;;22.02;39.41;101174.53;7397490;19;1752;-41
2023/10/17 14:28:56;;;;;;;;;;;;;;;21.86;39.98;101176.94;7396239;19;1359;-41
2023/10/17 14:31:25;;;;;;;;;;;;;;;21.92;40.12;101171.00;7394180;19;1839;-40
2023/10/17 14:33:55;;;;;;;;;;;;;;;21.99;39.79;101176.66;7398318;19;1689;-40
2023/10/17 14:36:23;;;;;;;;;;;;;;;21.90;39.88;101167.59;7397420;19;1452;-40
2023/10/17 14:38:52;;;;;;;;;;;;;;;21.95;39.96;101175.25;7397344;19;1923;-40
2023/10/17 14:41:20;;;;;;;;;;;;;;;21.92;40.10;101207.84;7396083;19;1835;-41